Terminal Aerodrome Forecast
Issued by NWS Charleston, WV

Home | Current Version | Previous Version | Text Only | Print | Product List | Glossary On
Versions: 1 2 3 4 5 6 7 8 9 10 11 12 13 14 15 16 17 18 19 20 21 22 23
000
FTUS41 KRLX 300808 AAA
TAFEKN
TAF AMD
KEKN 300808Z 3008/3106 00000KT 6SM BR BKN080
      TEMPO 3010/3012 2SM BR SCT001
     FM301200 00000KT 4SM BR BKN080
     FM301400 VRB03KT P6SM SCT080
     FM301600 27005KT P6SM VCTS BKN040CB
     FM302300 32005KT P6SM SCT040
     FM310200 31002KT P6SM SCT080=

USA.gov is the U.S. government's official web portal to all federal, state and local government web resources and services.